Time;durP1;ratioP1;P1;durP2;ratioP2;P2;SDS_P1;SDS_P2;PMS_P1;PMS_P2;Temp;Humidity;BMP_temperature;BMP_pressure;BME280_temperature;BME280_humidity;BME280_pressure;Samples;Min_cycle;Max_cycle;Signal;HPM_P1;HPM_P2
2021/07/28 00:01:38;;;;;;;17.73;16.00;;;19.20;99.90;;;;;;5018146;28;20720;-83
2021/07/28 00:04:07;;;;;;;17.10;15.30;;;19.20;99.90;;;;;;5024440;28;20206;-82
2021/07/28 00:06:36;;;;;;;17.23;15.50;;;19.30;99.90;;;;;;5027713;28;20430;-82
2021/07/28 00:09:05;;;;;;;16.27;14.27;;;19.20;99.90;;;;;;5038273;28;20211;-85
2021/07/28 00:11:33;;;;;;;18.10;14.97;;;19.20;99.90;;;;;;5012797;28;20200;-84
2021/07/28 00:14:02;;;;;;;17.07;14.90;;;19.20;99.90;;;;;;5012514;28;20226;-82
2021/07/28 00:16:32;;;;;;;16.77;15.07;;;19.20;99.90;;;;;;5014824;28;20196;-83
2021/07/28 00:19:07;;;;;;;17.07;15.37;;;19.10;99.90;;;;;;5024269;28;20601;-84
2021/07/28 00:24:21;;;;;;;15.83;14.13;;;19.10;99.90;;;;;;5016820;28;20223;-84
2021/07/28 00:26:50;;;;;;;16.20;14.50;;;19.10;99.90;;;;;;5019929;28;20210;-83
2021/07/28 00:29:19;;;;;;;16.53;15.03;;;19.10;99.90;;;;;;5027255;28;20214;-83
2021/07/28 00:31:47;;;;;;;16.60;14.50;;;19.10;99.90;;;;;;5027222;28;20258;-85
2021/07/28 00:34:17;;;;;;;15.63;13.87;;;19.00;99.90;;;;;;5024174;28;20223;-82
2021/07/28 00:36:46;;;;;;;15.73;14.00;;;19.00;99.90;;;;;;5021708;28;20269;-83
2021/07/28 00:39:15;;;;;;;18.50;15.37;;;18.90;99.90;;;;;;5036448;28;20210;-81
2021/07/28 00:41:44;;;;;;;16.77;14.20;;;18.80;99.90;;;;;;5035305;28;20175;-82
2021/07/28 00:44:13;;;;;;;16.63;14.73;;;18.80;99.90;;;;;;5031467;28;20202;-85
2021/07/28 00:46:42;;;;;;;16.87;14.40;;;18.70;99.90;;;;;;5029255;28;20202;-84
2021/07/28 00:49:10;;;;;;;16.63;14.90;;;18.70;99.90;;;;;;5038365;28;20266;-83
2021/07/28 00:51:41;;;;;;;17.33;14.63;;;18.70;99.90;;;;;;5027549;28;20206;-81
2021/07/28 00:54:10;;;;;;;16.37;14.67;;;18.70;99.90;;;;;;5025255;28;20612;-84
2021/07/28 00:56:39;;;;;;;17.17;13.93;;;18.70;99.90;;;;;;5015189;28;20210;-81
2021/07/28 00:59:10;;;;;;;16.57;14.73;;;18.60;99.90;;;;;;5021020;28;20226;-81
2021/07/28 01:01:38;;;;;;;17.00;13.93;;;18.50;99.90;;;;;;5024122;28;20805;-82
2021/07/28 01:04:07;;;;;;;16.43;14.47;;;18.40;99.90;;;;;;5027365;28;20199;-83
2021/07/28 01:06:37;;;;;;;16.87;14.37;;;18.30;99.90;;;;;;5020864;28;20211;-81
2021/07/28 01:09:07;;;;;;;16.67;14.63;;;18.30;99.90;;;;;;5033596;28;20736;-81
2021/07/28 01:11:37;;;;;;;16.83;15.03;;;18.20;99.90;;;;;;5036529;28;20200;-82
2021/07/28 01:14:06;;;;;;;18.73;16.00;;;18.20;99.90;;;;;;5032853;28;20199;-82
2021/07/28 01:16:38;;;;;;;18.40;16.00;;;18.20;99.90;;;;;;5024724;28;20936;-84
2021/07/28 01:19:11;;;;;;;17.43;15.30;;;18.20;99.90;;;;;;5019829;28;20202;-82
2021/07/28 01:21:43;;;;;;;17.87;15.93;;;18.20;99.90;;;;;;5019586;28;20200;-84
2021/07/28 01:24:14;;;;;;;17.93;16.03;;;18.20;99.90;;;;;;5018594;28;20211;-83
2021/07/28 01:26:44;;;;;;;20.10;16.87;;;18.10;99.90;;;;;;5013924;28;20711;-83
2021/07/28 01:29:14;;;;;;;19.00;15.30;;;18.10;99.90;;;;;;5022137;28;20203;-85
2021/07/28 01:31:45;;;;;;;18.03;15.70;;;18.10;99.90;;;;;;5012442;28;20207;-86
2021/07/28 01:34:13;;;;;;;16.77;14.97;;;18.10;99.90;;;;;;5011099;28;20203;-83
2021/07/28 01:36:48;;;;;;;18.00;15.07;;;18.00;99.90;;;;;;5011038;28;20203;-85
2021/07/28 01:39:18;;;;;;;19.27;16.00;;;18.00;99.90;;;;;;5007747;28;20210;-84
2021/07/28 01:41:58;;;;;;;19.80;16.90;;;18.00;99.90;;;;;;5008346;28;20211;-84
2021/07/28 01:44:27;;;;;;;22.43;16.90;;;17.90;99.90;;;;;;5013883;28;20234;-82
2021/07/28 01:46:56;;;;;;;22.13;16.90;;;17.90;99.90;;;;;;5004968;28;20901;-81
2021/07/28 01:49:24;;;;;;;16.97;15.17;;;17.90;99.90;;;;;;5020289;28;20196;-82
2021/07/28 01:51:53;;;;;;;20.10;16.00;;;17.90;99.90;;;;;;5016221;28;20207;-82
2021/07/28 01:54:23;;;;;;;20.27;16.93;;;18.00;99.90;;;;;;5018627;28;20211;-84
2021/07/28 01:56:51;;;;;;;19.23;15.67;;;17.90;99.90;;;;;;5024479;28;20249;-84
2021/07/28 01:59:21;;;;;;;17.83;15.97;;;18.00;99.90;;;;;;5035030;28;20210;-82
2021/07/28 02:01:55;;;;;;;20.37;15.33;;;18.00;99.90;;;;;;5033219;28;20215;-84
2021/07/28 02:04:24;;;;;;;18.03;16.13;;;17.90;99.90;;;;;;5044112;28;20229;-82
2021/07/28 02:06:53;;;;;;;20.27;16.07;;;17.90;99.90;;;;;;5036304;28;20719;-87
2021/07/28 02:09:23;;;;;;;19.00;15.60;;;18.00;99.90;;;;;;5044901;28;20198;-83
2021/07/28 02:11:51;;;;;;;22.80;15.03;;;17.90;99.90;;;;;;5045802;28;20330;-83
2021/07/28 02:14:20;;;;;;;19.43;14.97;;;17.90;99.90;;;;;;5042253;28;20188;-82
2021/07/28 02:16:49;;;;;;;16.20;14.53;;;17.80;99.90;;;;;;5041493;28;20226;-86
2021/07/28 02:19:18;;;;;;;18.13;15.33;;;17.80;99.90;;;;;;5043933;28;20199;-85
2021/07/28 02:21:46;;;;;;;18.37;15.67;;;17.70;99.90;;;;;;5040759;28;20191;-85
2021/07/28 02:24:15;;;;;;;16.50;14.60;;;17.60;99.90;;;;;;5044189;28;20237;-86
2021/07/28 02:26:45;;;;;;;18.23;16.13;;;17.50;99.90;;;;;;5040279;28;20199;-85
2021/07/28 02:29:13;;;;;;;17.30;15.43;;;17.50;99.90;;;;;;5035095;28;20198;-80
2021/07/28 02:31:42;;;;;;;17.70;15.77;;;17.50;99.90;;;;;;5037332;28;20238;-80
2021/07/28 02:34:11;;;;;;;18.53;16.73;;;17.40;99.90;;;;;;5035283;28;20219;-82
2021/07/28 02:36:40;;;;;;;19.17;17.17;;;17.40;99.90;;;;;;5035566;28;20226;-83
2021/07/28 02:39:09;;;;;;;19.80;17.70;;;17.40;99.90;;;;;;5036738;28;20189;-85
2021/07/28 02:41:38;;;;;;;21.27;18.77;;;17.30;99.90;;;;;;5033667;28;20329;-84
2021/07/28 02:44:08;;;;;;;18.90;16.70;;;17.40;99.90;;;;;;5031024;28;20179;-82
2021/07/28 02:46:37;;;;;;;18.77;16.73;;;17.40;99.90;;;;;;5035712;28;20201;-85
2021/07/28 02:49:05;;;;;;;19.33;17.20;;;17.40;99.90;;;;;;5028090;28;20195;-85
2021/07/28 02:51:34;;;;;;;19.63;17.57;;;17.40;99.90;;;;;;5023530;28;20685;-82
2021/07/28 02:54:03;;;;;;;20.87;17.97;;;17.40;99.90;;;;;;5019141;28;20207;-83
2021/07/28 02:56:31;;;;;;;21.73;18.17;;;17.40;99.90;;;;;;5013860;28;20284;-85
2021/07/28 02:59:00;;;;;;;22.60;18.13;;;17.40;99.90;;;;;;5013677;28;21069;-83
2021/07/28 03:01:31;;;;;;;21.77;18.40;;;17.30;99.90;;;;;;5013101;28;20206;-83
2021/07/28 03:04:00;;;;;;;22.17;18.40;;;17.30;99.90;;;;;;5013516;28;20677;-85
2021/07/28 03:06:29;;;;;;;21.10;18.20;;;17.30;99.90;;;;;;5025271;28;20210;-84
2021/07/28 03:08:58;;;;;;;20.83;18.17;;;17.30;99.90;;;;;;5022446;28;20205;-83
2021/07/28 03:11:27;;;;;;;25.77;19.13;;;17.30;99.90;;;;;;5019306;28;20191;-82
2021/07/28 03:13:55;;;;;;;23.20;19.07;;;17.40;99.90;;;;;;5021241;28;20202;-84
2021/07/28 03:16:24;;;;;;;22.33;18.33;;;17.50;99.90;;;;;;5022061;28;20254;-80
2021/07/28 03:18:54;;;;;;;22.17;18.10;;;17.60;99.90;;;;;;5023552;28;20553;-82
2021/07/28 03:21:23;;;;;;;20.83;18.63;;;17.60;99.90;;;;;;5024218;28;20196;-82
2021/07/28 03:23:52;;;;;;;20.93;18.10;;;17.70;99.90;;;;;;5034710;28;20225;-81
2021/07/28 03:26:20;;;;;;;24.30;21.53;;;17.70;99.90;;;;;;5015002;28;20199;-82
2021/07/28 03:28:49;;;;;;;22.33;18.97;;;17.70;99.90;;;;;;5019701;28;20211;-83
2021/07/28 03:31:17;;;;;;;20.80;17.77;;;17.70;99.90;;;;;;5015611;28;20215;-84
2021/07/28 03:33:46;;;;;;;19.30;16.80;;;17.70;99.90;;;;;;5017686;28;20203;-81
2021/07/28 03:36:16;;;;;;;21.63;17.67;;;17.80;99.90;;;;;;5016324;28;20242;-84
2021/07/28 03:38:44;;;;;;;19.37;17.27;;;17.80;99.90;;;;;;5020958;28;20649;-82
2021/07/28 03:41:13;;;;;;;20.17;16.87;;;17.90;99.90;;;;;;5023201;28;20206;-83
2021/07/28 03:43:42;;;;;;;18.90;17.10;;;18.00;99.90;;;;;;5025875;28;20961;-84
2021/07/28 03:46:10;;;;;;;18.77;16.60;;;18.00;99.90;;;;;;5023759;28;20222;-83
2021/07/28 03:48:39;;;;;;;19.37;16.33;;;18.10;99.90;;;;;;5022389;28;20198;-81
2021/07/28 03:51:07;;;;;;;16.70;15.00;;;18.20;99.90;;;;;;5022372;28;20215;-83
2021/07/28 03:53:38;;;;;;;16.90;15.10;;;18.30;99.90;;;;;;5019348;28;20196;-83
2021/07/28 03:56:06;;;;;;;17.00;15.30;;;18.40;99.90;;;;;;5033976;28;20222;-85
2021/07/28 03:58:35;;;;;;;17.17;15.27;;;18.50;99.90;;;;;;5029620;28;20187;-83
2021/07/28 04:01:04;;;;;;;17.73;15.47;;;18.60;99.90;;;;;;5035742;28;20210;-85
2021/07/28 04:03:33;;;;;;;16.40;14.70;;;18.60;99.90;;;;;;5020823;28;20235;-85
2021/07/28 04:06:02;;;;;;;18.03;15.33;;;18.70;99.90;;;;;;5019822;28;20214;-84
2021/07/28 04:08:30;;;;;;;18.10;16.30;;;18.70;99.90;;;;;;5023461;28;20195;-86
2021/07/28 04:11:01;;;;;;;23.60;16.97;;;18.80;99.90;;;;;;5032757;28;20210;-83
2021/07/28 04:13:30;;;;;;;18.37;16.53;;;18.80;99.90;;;;;;5022061;28;20683;-83
2021/07/28 04:15:58;;;;;;;18.90;16.93;;;19.00;99.90;;;;;;5013224;28;20241;-84
2021/07/28 04:18:27;;;;;;;17.97;16.17;;;19.10;99.90;;;;;;4997009;28;20215;-86
2021/07/28 04:20:56;;;;;;;18.13;16.33;;;19.20;99.90;;;;;;5012053;28;20207;-85
2021/07/28 04:23:25;;;;;;;19.03;17.03;;;19.30;99.90;;;;;;5012652;28;20233;-84
2021/07/28 04:25:53;;;;;;;19.97;17.07;;;19.40;99.90;;;;;;5021828;28;20215;-84
2021/07/28 04:28:23;;;;;;;18.53;16.50;;;19.60;99.90;;;;;;5014996;28;20214;-84
2021/07/28 04:30:52;;;;;;;19.17;17.33;;;19.60;99.90;;;;;;5007463;28;20281;-82
2021/07/28 04:33:21;;;;;;;19.67;16.27;;;19.70;99.90;;;;;;5001555;28;20205;-83
2021/07/28 04:35:51;;;;;;;17.43;15.60;;;19.80;99.90;;;;;;5008137;28;20217;-84
2021/07/28 04:38:20;;;;;;;18.33;16.40;;;20.00;99.90;;;;;;5005914;28;20257;-83
2021/07/28 04:40:52;;;;;;;19.43;15.90;;;20.10;99.90;;;;;;5004791;28;20677;-84
2021/07/28 04:43:21;;;;;;;18.92;15.18;;;20.30;99.90;;;;;;5013343;28;20691;-84
2021/07/28 04:45:59;;;;;;;18.80;14.83;;;20.50;99.90;;;;;;5014558;28;20235;-82
2021/07/28 04:48:32;;;;;;;16.93;15.13;;;20.60;99.90;;;;;;5018385;28;20210;-83
2021/07/28 04:51:04;;;;;;;16.48;14.38;;;20.80;99.90;;;;;;5018941;28;20206;-84
2021/07/28 04:53:33;;;;;;;16.45;14.30;;;21.00;99.90;;;;;;5022542;28;20206;-83
2021/07/28 04:56:02;;;;;;;15.00;13.50;;;21.10;99.90;;;;;;5032748;28;20222;-83
2021/07/28 04:58:31;;;;;;;16.85;13.98;;;21.30;99.90;;;;;;5018571;28;20207;-86
2021/07/28 05:01:04;;;;;;;14.85;13.45;;;21.50;99.90;;;;;;5017133;28;20203;-86
2021/07/28 05:03:33;;;;;;;17.65;13.48;;;21.70;99.90;;;;;;5014937;28;20576;-84
2021/07/28 05:06:03;;;;;;;20.08;13.77;;;21.90;99.90;;;;;;5012809;28;20241;-83
2021/07/28 05:08:32;;;;;;;19.15;13.88;;;22.10;99.90;;;;;;5004412;28;20218;-85
2021/07/28 05:11:01;;;;;;;17.95;12.95;;;22.20;99.50;;;;;;5009204;28;20671;-83
2021/07/28 05:13:29;;;;;;;16.50;13.23;;;22.30;97.70;;;;;;5019616;28;20659;-84
2021/07/28 05:15:58;;;;;;;16.83;13.02;;;22.40;97.80;;;;;;5010232;28;20906;-84
2021/07/28 05:18:28;;;;;;;16.10;13.43;;;22.60;97.90;;;;;;5009588;28;20231;-85
2021/07/28 05:20:58;;;;;;;13.68;12.30;;;22.70;97.70;;;;;;5013307;28;20218;-85
2021/07/28 05:23:27;;;;;;;14.57;12.48;;;22.80;97.80;;;;;;5020003;28;20582;-85
2021/07/28 05:25:57;;;;;;;13.25;11.50;;;22.90;96.20;;;;;;5008571;28;20212;-82
2021/07/28 05:28:26;;;;;;;16.02;13.45;;;22.90;96.50;;;;;;5015809;28;20206;-84
2021/07/28 05:30:55;;;;;;;15.90;11.93;;;22.90;96.20;;;;;;5032031;28;20199;-85
2021/07/28 05:33:23;;;;;;;16.00;12.63;;;23.10;95.20;;;;;;5021120;28;20661;-87
2021/07/28 05:35:54;;;;;;;14.55;12.45;;;23.10;96.10;;;;;;5015459;28;20503;-85
2021/07/28 05:38:23;;;;;;;16.55;14.82;;;23.20;95.30;;;;;;5011317;28;20237;-83
2021/07/28 05:40:55;;;;;;;14.23;12.82;;;23.20;95.40;;;;;;5025693;28;20230;-83
2021/07/28 05:43:27;;;;;;;20.27;18.20;;;23.30;95.20;;;;;;5022787;28;20202;-85
2021/07/28 05:46:17;;;;;;;35.80;32.35;;;23.40;95.40;;;;;;5015722;28;20217;-87
2021/07/28 05:48:52;;;;;;;18.85;15.20;;;23.60;94.40;;;;;;5017011;28;20982;-85
2021/07/28 05:51:23;;;;;;;16.55;14.70;;;23.80;93.90;;;;;;5015212;28;20911;-87
2021/07/28 05:53:55;;;;;;;14.80;12.23;;;23.90;93.70;;;;;;5020543;28;20219;-83
2021/07/28 05:56:24;;;;;;;15.25;13.30;;;24.00;91.90;;;;;;5021962;28;20214;-86
2021/07/28 05:58:54;;;;;;;15.18;12.27;;;24.10;92.80;;;;;;5026268;28;20239;-86
2021/07/28 06:01:23;;;;;;;16.80;11.57;;;24.30;92.50;;;;;;5022146;28;20214;-85
2021/07/28 06:03:52;;;;;;;14.93;11.73;;;24.30;92.20;;;;;;5022553;28;20266;-84
2021/07/28 06:06:25;;;;;;;19.08;12.07;;;24.30;92.20;;;;;;5024195;28;20214;-85
2021/07/28 06:08:55;;;;;;;12.38;11.15;;;24.40;91.90;;;;;;5010792;28;20587;-84
2021/07/28 06:11:24;;;;;;;15.73;11.20;;;24.50;92.20;;;;;;5023222;28;20204;-81
2021/07/28 06:13:54;;;;;;;14.65;11.38;;;24.60;91.90;;;;;;5022727;28;20213;-85
2021/07/28 06:16:24;;;;;;;17.67;10.95;;;24.70;92.20;;;;;;5016301;28;20492;-85
2021/07/28 06:18:58;;;;;;;13.18;11.07;;;24.90;92.10;;;;;;5016090;28;20705;-83
2021/07/28 06:21:29;;;;;;;12.27;10.73;;;25.00;90.90;;;;;;5013905;28;20415;-84
2021/07/28 06:24:00;;;;;;;14.18;10.77;;;25.00;91.10;;;;;;5011651;28;20214;-82
2021/07/28 06:26:29;;;;;;;15.40;10.57;;;25.20;91.30;;;;;;5019880;28;20199;-83
2021/07/28 06:28:59;;;;;;;13.40;10.98;;;25.50;90.70;;;;;;5008695;28;20213;-86
2021/07/28 06:31:28;;;;;;;19.33;10.48;;;25.60;90.80;;;;;;5007481;28;20213;-83
2021/07/28 06:33:56;;;;;;;11.48;9.88;;;25.80;90.50;;;;;;5015988;28;20230;-85
2021/07/28 06:36:25;;;;;;;13.30;9.63;;;26.10;90.50;;;;;;5025199;28;20204;-85
2021/07/28 06:38:55;;;;;;;13.32;9.98;;;26.40;89.80;;;;;;5009271;28;20926;-85
2021/07/28 09:54:10;;;;;;;6.95;6.25;;;29.80;76.20;;;;;;4659755;30;20253;-83
2021/07/28 11:37:04;;;;;;;7.10;6.50;;;30.40;70.90;;;;;;5912359;24;20250;-83
2021/07/28 12:30:21;;;;;;;6.68;6.07;;;31.00;67.00;;;;;;5958473;23;20189;-84
2021/07/28 14:42:15;;;;;;;5.28;4.88;;;36.40;56.80;;;;;;4758221;29;20463;-83
2021/07/28 14:46:33;;;;;;;5.75;5.25;;;36.40;55.90;;;;;;4676701;29;20245;-85
2021/07/28 16:09:45;;;;;;;4.88;4.47;;;32.60;51.50;;;;;;4604745;30;20797;-85
2021/07/28 16:33:42;;;;;;;5.40;4.90;;;30.20;54.10;;;;;;4727979;29;20275;-86
2021/07/28 16:58:16;;;;;;;5.78;5.18;;;30.00;60.60;;;;;;4667219;30;20672;-86
2021/07/28 17:32:11;;;;;;;5.70;5.07;;;28.80;66.40;;;;;;6235337;22;1420404;-84
2021/07/28 17:51:39;;;;;;;6.30;5.68;;;26.50;79.90;;;;;;5677689;24;20246;-84
2021/07/28 18:50:11;;;;;;;8.00;7.18;;;24.70;86.90;;;;;;5837393;24;20214;-82
2021/07/28 19:19:10;;;;;;;11.43;8.38;;;24.30;87.00;;;;;;5588087;25;20256;-82
2021/07/28 20:56:32;;;;;;;7.40;6.70;;;20.50;99.90;;;;;;5479854;25;20194;-84
2021/07/28 21:16:10;;;;;;;9.27;8.37;;;20.30;99.90;;;;;;5536666;25;20207;-84
2021/07/28 21:54:56;;;;;;;12.63;11.07;;;19.90;99.90;;;;;;5850006;24;20234;-83
2021/07/28 23:12:37;;;;;;;10.80;9.80;;;19.80;99.90;;;;;;5524074;25;20192;-85
